Time;durP1;ratioP1;P1;durP2;ratioP2;P2;SDS_P1;SDS_P2;PMS_P1;PMS_P2;Temp;Humidity;BMP_temperature;BMP_pressure;BME280_temperature;BME280_humidity;BME280_pressure;Samples;Min_cycle;Max_cycle;Signal;HPM_P1;HPM_P2
2023/10/30 00:01:07;;;;;;;;;;;;;;;-140.72;100.00;57442.53;5039681;28;19929;-69
2023/10/30 00:03:34;;;;;;;;;;;;;;;-140.72;100.00;57458.78;5050155;28;20344;-69
2023/10/30 00:06:00;;;;;;;;;;;;;;;-140.72;100.00;57448.63;5049652;28;19921;-70
2023/10/30 00:08:26;;;;;;;;;;;;;;;-140.72;100.00;57466.91;5063487;28;20335;-69
2023/10/30 00:10:51;;;;;;;;;;;;;;;-140.72;100.00;57503.47;5055226;28;19928;-70
2023/10/30 00:13:16;;;;;;;;;;;;;;;-140.72;100.00;57497.38;5050805;28;19925;-69
2023/10/30 00:15:41;;;;;;;;;;;;;;;-140.72;100.00;57515.66;5067911;28;19922;-69
2023/10/30 00:18:07;;;;;;;;;;;;;;;-140.72;100.00;57458.78;5064349;28;19922;-70
2023/10/30 00:20:34;;;;;;;;;;;;;;;-140.72;100.00;57542.06;5059812;28;19921;-70
2023/10/30 00:22:59;;;;;;;;;;;;;;;-140.72;100.00;57574.59;5055158;28;19920;-69
2023/10/30 00:25:25;;;;;;;;;;;;;;;-140.72;100.00;57611.16;5061780;28;19987;-69
2023/10/30 00:27:50;;;;;;;;;;;;;;;-140.72;100.00;57615.22;5059321;28;19917;-72
2023/10/30 00:30:15;;;;;;;;;;;;;;;-140.72;100.00;57645.69;5063839;28;20015;-72
2023/10/30 00:32:40;;;;;;;;;;;;;;;-140.72;100.00;57676.19;5062913;28;20008;-72
2023/10/30 00:35:06;;;;;;;;;;;;;;;-140.72;100.00;57706.66;5054508;28;20421;-72
2023/10/30 00:37:31;;;;;;;;;;;;;;;-140.72;100.00;57769.63;5055711;28;20271;-72
2023/10/30 00:39:56;;;;;;;;;;;;;;;-140.72;100.00;57810.28;5054978;28;19917;-71
2023/10/30 00:42:25;;;;;;;;;;;;;;;-140.72;100.00;57842.78;5057348;28;20362;-71
2023/10/30 00:44:50;;;;;;;;;;;;;;;-140.72;100.00;57859.03;5052344;28;20303;-71
2023/10/30 00:47:16;;;;;;;;;;;;;;;-140.72;100.00;57956.56;5053044;28;19921;-71
2023/10/30 00:49:41;;;;;;;;;;;;;;;-140.72;100.00;57917.97;5053454;28;20068;-71
2023/10/30 00:52:06;;;;;;;;;;;;;;;-140.72;100.00;57948.44;5058192;28;19921;-71
2023/10/30 00:54:32;;;;;;;;;;;;;;;-140.72;100.00;57958.59;5053929;28;20332;-72
2023/10/30 00:56:57;;;;;;;;;;;;;;;-140.72;100.00;57958.59;5075212;28;19924;-71
2023/10/30 00:59:22;;;;;;;;;;;;;;;-140.72;100.00;58005.34;5047822;28;19917;-70
2023/10/30 01:01:48;;;;;;;;;;;;;;;-140.72;100.00;58068.34;5053650;28;19939;-71
2023/10/30 01:04:14;;;;;;;;;;;;;;;-140.72;100.00;58045.97;5054349;28;19978;-71
2023/10/30 01:06:39;;;;;;;;;;;;;;;-140.72;100.00;58084.59;5051823;28;19962;-71
2023/10/30 01:09:04;;;;;;;;;;;;;;;-140.72;100.00;58100.84;5051913;28;19917;-71
2023/10/30 01:11:29;;;;;;;;;;;;;;;-140.72;100.00;58145.56;5051830;28;19982;-71
2023/10/30 01:13:54;;;;;;;;;;;;;;;-140.72;100.00;58176.03;5062116;28;20004;-71
2023/10/30 01:16:20;;;;;;;;;;;;;;;-140.72;100.00;58226.84;5054345;28;19928;-72
2023/10/30 01:18:45;;;;;;;;;;;;;;;-140.72;100.00;58251.22;5053803;28;19921;-72
2023/10/30 01:21:11;;;;;;;;;;;;;;;-140.72;100.00;58257.31;5054869;28;19968;-73
2023/10/30 01:23:37;;;;;;;;;;;;;;;-140.72;100.00;58295.94;5060133;28;19991;-72
2023/10/30 01:26:02;;;;;;;;;;;;;;;-140.72;100.00;58287.81;5052903;28;20406;-70
2023/10/30 01:28:27;;;;;;;;;;;;;;;-140.72;100.00;58344.69;5053234;28;19920;-71
2023/10/30 01:30:52;;;;;;;;;;;;;;;-140.72;100.00;58360.97;5052491;28;20295;-72
2023/10/30 01:33:18;;;;;;;;;;;;;;;-140.72;100.00;58367.06;5041824;28;20375;-72
2023/10/30 01:35:43;;;;;;;;;;;;;;;-140.72;100.00;58405.66;5049649;28;19922;-71
2023/10/30 01:38:08;;;;;;;;;;;;;;;-140.72;100.00;58405.66;5052004;28;19997;-71
2023/10/30 01:40:35;;;;;;;;;;;;;;;-140.72;100.00;58462.56;5041771;28;20397;-72
2023/10/30 01:43:06;;;;;;;;;;;;;;;-140.72;100.00;58450.38;5055429;28;19920;-71
2023/10/30 01:45:31;;;;;;;;;;;;;;;-140.72;100.00;58442.25;5062928;28;19917;-72
2023/10/30 01:47:57;;;;;;;;;;;;;;;-140.72;100.00;58454.44;5049047;28;20368;-71
2023/10/30 01:50:22;;;;;;;;;;;;;;;-140.72;100.00;58413.78;5043141;28;19927;-72
2023/10/30 01:52:47;;;;;;;;;;;;;;;-140.72;100.00;58462.56;5053029;28;19920;-71
2023/10/30 01:55:13;;;;;;;;;;;;;;;-140.72;100.00;58454.44;5052422;28;19974;-72
2023/10/30 01:57:38;;;;;;;;;;;;;;;-140.72;100.00;58442.25;5052240;28;19924;-71
2023/10/30 02:00:17;;;;;;;;;;;;;;;-140.72;100.00;58413.78;5043685;28;19928;-72
2023/10/30 02:02:42;;;;;;;;;;;;;;;-140.72;100.00;58426.00;5049555;28;20298;-72
2023/10/30 02:05:26;;;;;;;;;;;;;;;-140.72;100.00;58393.47;5052513;28;19921;-75
2023/10/30 02:07:51;;;;;;;;;;;;;;;-140.72;100.00;58405.66;5048003;28;19922;-72
2023/10/30 02:10:17;;;;;;;;;;;;;;;-140.72;100.00;58379.25;5053203;28;19916;-72
2023/10/30 02:12:42;;;;;;;;;;;;;;;-140.72;100.00;58369.09;5062655;28;20246;-72
2023/10/30 02:15:08;;;;;;;;;;;;;;;-140.72;100.00;58334.53;5073461;28;19945;-72
2023/10/30 02:17:33;;;;;;;;;;;;;;;-140.72;100.00;58356.91;5055964;28;19925;-71
2023/10/30 02:19:59;;;;;;;;;;;;;;;-140.72;100.00;58316.25;5086558;28;20391;-72
2023/10/30 02:22:26;;;;;;;;;;;;;;;-140.72;100.00;58234.97;5042565;28;19947;-73
2023/10/30 02:24:51;;;;;;;;;;;;;;;-140.72;100.00;58243.09;5051510;28;19931;-72
2023/10/30 02:27:17;;;;;;;;;;;;;;;-140.72;100.00;58230.91;5043799;28;20371;-71
2023/10/30 02:29:42;;;;;;;;;;;;;;;-140.72;100.00;58228.88;5052514;28;19920;-71
2023/10/30 02:32:08;;;;;;;;;;;;;;;-140.72;100.00;58214.66;5049832;28;19921;-71
2023/10/30 02:34:33;;;;;;;;;;;;;;;-140.72;100.00;58192.28;5046049;28;19917;-71
2023/10/30 02:36:59;;;;;;;;;;;;;;;-140.72;100.00;58218.72;5051996;28;19969;-71
2023/10/30 02:39:32;;;;;;;;;;;;;;;-140.72;100.00;58192.28;5048078;28;19948;-71
2023/10/30 02:41:57;;;;;;;;;;;;;;;-140.72;100.00;58143.53;5061032;28;20371;-71
2023/10/30 02:44:23;;;;;;;;;;;;;;;-140.72;100.00;58149.63;5052268;28;19928;-71
2023/10/30 02:46:49;;;;;;;;;;;;;;;-140.72;100.00;58174.00;5051870;28;19928;-71
2023/10/30 02:49:14;;;;;;;;;;;;;;;-140.72;100.00;58182.13;5051006;28;19925;-71
2023/10/30 02:51:39;;;;;;;;;;;;;;;-140.72;100.00;58153.69;5052730;28;20095;-71
2023/10/30 02:54:05;;;;;;;;;;;;;;;-140.72;100.00;58202.44;5049047;28;20008;-71
2023/10/30 02:56:30;;;;;;;;;;;;;;;-140.72;100.00;58194.31;5048067;28;19959;-71
2023/10/30 02:59:12;;;;;;;;;;;;;;;-140.72;100.00;58171.97;5057887;28;19924;-71
2023/10/30 03:01:37;;;;;;;;;;;;;;;-140.72;100.00;58129.28;5044296;28;20374;-71
2023/10/30 03:06:52;;;;;;;;;;;;;;;-140.72;100.00;58167.91;5032488;28;20360;-71
2023/10/30 03:09:17;;;;;;;;;;;;;;;-140.72;100.00;58137.44;5046046;28;19940;-71
2023/10/30 03:11:43;;;;;;;;;;;;;;;-140.72;100.00;58100.84;5065356;28;19928;-71
2023/10/30 03:14:08;;;;;;;;;;;;;;;-140.72;100.00;58070.38;5044465;28;19939;-71
2023/10/30 03:16:33;;;;;;;;;;;;;;;-140.72;100.00;58090.69;5054736;28;19963;-71
2023/10/30 03:18:58;;;;;;;;;;;;;;;-140.72;100.00;58056.16;5056246;28;20005;-71
2023/10/30 03:21:24;;;;;;;;;;;;;;;-140.72;100.00;58092.72;5067481;28;19920;-71
2023/10/30 03:23:49;;;;;;;;;;;;;;;-140.72;100.00;58080.53;5058480;28;19928;-71
2023/10/30 03:26:14;;;;;;;;;;;;;;;-140.72;100.00;58078.50;5040756;28;19917;-71
2023/10/30 03:28:39;;;;;;;;;;;;;;;-140.72;100.00;58084.59;5039208;28;19921;-71
2023/10/30 03:31:09;;;;;;;;;;;;;;;-140.72;100.00;58082.56;5045221;28;19917;-71
2023/10/30 03:33:54;;;;;;;;;;;;;;;-140.72;100.00;58060.22;5048327;28;19936;-71
2023/10/30 03:36:23;;;;;;;;;;;;;;;-140.72;100.00;58094.75;5032241;28;19925;-71
2023/10/30 03:41:51;;;;;;;;;;;;;;;-140.72;100.00;58115.06;5048145;28;19980;-71
2023/10/30 03:44:31;;;;;;;;;;;;;;;-140.72;100.00;58127.25;5044692;28;19921;-71
2023/10/30 03:46:56;;;;;;;;;;;;;;;-140.72;100.00;58151.66;5049043;28;19925;-71
2023/10/30 03:49:44;;;;;;;;;;;;;;;-140.72;100.00;58186.19;5045022;28;20065;-71
2023/10/30 03:52:38;;;;;;;;;;;;;;;-140.72;100.00;58178.06;5049026;28;19956;-72
2023/10/30 03:55:04;;;;;;;;;;;;;;;-140.72;100.00;58247.16;5055162;28;19933;-71
2023/10/30 04:00:41;;;;;;;;;;;;;;;-140.72;100.00;58312.19;5061993;28;19927;-71
2023/10/30 04:03:07;;;;;;;;;;;;;;;-140.72;100.00;58326.41;5048679;28;20011;-71
2023/10/30 04:08:39;;;;;;;;;;;;;;;-140.72;100.00;58340.63;5041546;28;19924;-71
2023/10/30 04:11:08;;;;;;;;;;;;;;;-140.72;100.00;58371.13;5054934;28;19924;-71
2023/10/30 04:13:33;;;;;;;;;;;;;;;-140.72;100.00;58336.56;5055296;28;19947;-71
2023/10/30 04:15:59;;;;;;;;;;;;;;;-140.72;100.00;58363.00;5053735;28;19928;-71
2023/10/30 04:18:24;;;;;;;;;;;;;;;-140.72;100.00;58356.91;5054939;28;19961;-71
2023/10/30 04:20:49;;;;;;;;;;;;;;;-140.72;100.00;58356.91;5057229;28;19928;-71
2023/10/30 04:23:14;;;;;;;;;;;;;;;-140.72;100.00;58375.19;5055109;28;19916;-71
2023/10/30 04:25:39;;;;;;;;;;;;;;;-140.72;100.00;58399.56;5053260;28;19923;-71
2023/10/30 04:28:05;;;;;;;;;;;;;;;-140.72;100.00;58352.84;5054482;28;20394;-72
2023/10/30 04:30:30;;;;;;;;;;;;;;;-140.72;100.00;58395.50;5054537;28;19970;-71
2023/10/30 04:32:55;;;;;;;;;;;;;;;-140.72;100.00;58430.06;5053307;28;20275;-71
2023/10/30 04:35:20;;;;;;;;;;;;;;;-140.72;100.00;58478.81;5055172;28;20341;-71
2023/10/30 04:37:45;;;;;;;;;;;;;;;-140.72;100.00;58423.97;5070935;28;20019;-70
2023/10/30 04:40:11;;;;;;;;;;;;;;;-140.72;100.00;58413.78;5057511;28;19920;-71
2023/10/30 04:42:36;;;;;;;;;;;;;;;-140.72;100.00;58401.59;5060287;28;19992;-71
2023/10/30 04:45:01;;;;;;;;;;;;;;;-140.72;100.00;58428.03;5059735;28;19932;-71
2023/10/30 04:47:26;;;;;;;;;;;;;;;-140.72;100.00;58438.19;5061837;28;19924;-71
2023/10/30 04:49:51;;;;;;;;;;;;;;;-140.72;100.00;58438.19;5040808;28;19921;-70
2023/10/30 04:52:17;;;;;;;;;;;;;;;-140.72;100.00;58417.84;5016257;28;19921;-71
2023/10/30 04:54:42;;;;;;;;;;;;;;;-140.72;100.00;58409.72;5022740;28;20009;-72
2023/10/30 04:57:07;;;;;;;;;;;;;;;-140.72;100.00;58411.75;5034370;28;19925;-71
2023/10/30 04:59:33;;;;;;;;;;;;;;;-140.72;100.00;58413.78;5032553;28;19928;-71
2023/10/30 05:02:01;;;;;;;;;;;;;;;-140.72;100.00;58430.06;5029908;28;19921;-71
2023/10/30 05:04:26;;;;;;;;;;;;;;;-140.72;100.00;58407.69;5027677;28;20359;-71
2023/10/30 05:06:51;;;;;;;;;;;;;;;-140.72;100.00;58379.25;5017105;28;19944;-71
2023/10/30 05:09:17;;;;;;;;;;;;;;;-140.72;100.00;58434.13;5033725;28;19975;-71
2023/10/30 05:11:42;;;;;;;;;;;;;;;-140.72;100.00;58401.59;5016651;28;19917;-72
2023/10/30 05:14:07;;;;;;;;;;;;;;;-140.72;100.00;58393.47;5035012;28;19917;-71
2023/10/30 05:16:33;;;;;;;;;;;;;;;-140.72;100.00;58407.69;5046698;28;20378;-72
2023/10/30 05:18:59;;;;;;;;;;;;;;;-140.72;100.00;58438.19;5031294;28;20285;-74
2023/10/30 05:21:24;;;;;;;;;;;;;;;-140.72;100.00;58446.31;5023226;28;19932;-73
2023/10/30 05:23:49;;;;;;;;;;;;;;;-140.72;100.00;58446.31;5032974;28;19928;-72
2023/10/30 05:26:15;;;;;;;;;;;;;;;-140.72;100.00;58460.53;5019069;28;19958;-72
2023/10/30 05:28:40;;;;;;;;;;;;;;;-140.72;100.00;58484.94;5032048;28;19944;-71
2023/10/30 05:31:06;;;;;;;;;;;;;;;-140.72;100.00;58539.78;5032185;28;19925;-72
2023/10/30 05:33:32;;;;;;;;;;;;;;;-140.72;100.00;58519.47;5038509;28;19939;-73
2023/10/30 05:35:57;;;;;;;;;;;;;;;-140.72;100.00;58547.91;5031506;28;20384;-72
2023/10/30 05:38:22;;;;;;;;;;;;;;;-140.72;100.00;58586.53;5021969;28;20310;-71
2023/10/30 05:40:47;;;;;;;;;;;;;;;-140.72;100.00;58612.97;5028941;28;19921;-70
2023/10/30 05:43:13;;;;;;;;;;;;;;;-140.72;100.00;58617.03;5029660;28;19925;-71
2023/10/30 05:45:38;;;;;;;;;;;;;;;-140.72;100.00;58647.50;5043866;28;19927;-72
2023/10/30 05:48:04;;;;;;;;;;;;;;;-140.72;100.00;58645.47;5025224;28;19974;-71
2023/10/30 05:50:29;;;;;;;;;;;;;;;-140.72;100.00;58663.75;5070870;28;20306;-74
2023/10/30 05:52:54;;;;;;;;;;;;;;;-140.72;100.00;58686.13;5055123;28;19996;-72
2023/10/30 05:55:20;;;;;;;;;;;;;;;-140.72;100.00;58718.63;5060500;28;19921;-73
2023/10/30 06:00:42;;;;;;;;;;;;;;;-140.72;100.00;58804.00;5053324;28;19944;-72
2023/10/30 06:03:09;;;;;;;;;;;;;;;-140.72;100.00;58793.84;5053228;28;20035;-72
2023/10/30 06:05:34;;;;;;;;;;;;;;;-140.72;100.00;58810.09;5055062;28;19956;-73
2023/10/30 06:08:26;;;;;;;;;;;;;;;-140.72;100.00;58824.31;5051483;28;20263;-71
2023/10/30 06:10:51;;;;;;;;;;;;;;;-140.72;100.00;58893.44;5051240;28;19917;-71
2023/10/30 06:13:16;;;;;;;;;;;;;;;-140.72;100.00;58907.66;5052532;28;19928;-72
2023/10/30 06:15:41;;;;;;;;;;;;;;;-140.72;100.00;58988.94;5046320;28;19917;-70
2023/10/30 06:18:07;;;;;;;;;;;;;;;-140.72;100.00;58986.91;5045030;28;19975;-71
2023/10/30 06:20:32;;;;;;;;;;;;;;;-140.72;100.00;58993.00;5049687;28;19923;-71
2023/10/30 06:22:57;;;;;;;;;;;;;;;-140.72;100.00;59027.56;5052656;28;19917;-70
2023/10/30 06:25:23;;;;;;;;;;;;;;;-140.72;100.00;59043.81;5051385;28;19916;-71
2023/10/30 06:27:48;;;;;;;;;;;;;;;-140.72;100.00;59088.53;5051899;28;19921;-71
2023/10/30 06:30:14;;;;;;;;;;;;;;;-140.72;100.00;59096.66;5051419;28;20020;-70
2023/10/30 06:32:39;;;;;;;;;;;;;;;-140.72;100.00;59104.81;5064823;28;19920;-71
2023/10/30 06:35:06;;;;;;;;;;;;;;;-140.72;100.00;59102.78;5053940;28;19916;-71
2023/10/30 06:37:31;;;;;;;;;;;;;;;-140.72;100.00;59163.75;5085325;28;20449;-71
2023/10/30 06:39:57;;;;;;;;;;;;;;;-140.72;100.00;59206.44;5051707;28;19924;-71
2023/10/30 06:42:22;;;;;;;;;;;;;;;-140.72;100.00;59234.88;5052324;28;19924;-71
2023/10/30 06:44:47;;;;;;;;;;;;;;;-140.72;100.00;59238.97;5051867;28;20020;-71
2023/10/30 06:47:12;;;;;;;;;;;;;;;-140.72;100.00;59263.34;5050012;28;19927;-71
2023/10/30 06:49:38;;;;;;;;;;;;;;;-140.72;100.00;59293.84;5050409;28;19967;-73
2023/10/30 06:52:03;;;;;;;;;;;;;;;-140.72;100.00;59308.06;5049940;28;20009;-73
2023/10/30 06:54:28;;;;;;;;;;;;;;;-140.72;100.00;59314.16;5060174;28;19921;-73
2023/10/30 06:56:53;;;;;;;;;;;;;;;-140.72;100.00;59369.03;5055334;28;20466;-72
2023/10/30 06:59:19;;;;;;;;;;;;;;;-140.72;100.00;59415.78;5049143;28;20341;-70
2023/10/30 07:01:45;;;;;;;;;;;;;;;-140.72;100.00;59428.00;5038938;28;20378;-70
2023/10/30 07:04:11;;;;;;;;;;;;;;;-140.72;100.00;59446.28;5050404;28;20012;-70
2023/10/30 07:06:37;;;;;;;;;;;;;;;-140.72;100.00;59436.13;5052512;28;20003;-70
2023/10/30 07:09:03;;;;;;;;;;;;;;;-140.72;100.00;59468.66;5051003;28;20368;-70
2023/10/30 07:11:28;;;;;;;;;;;;;;;-140.72;100.00;59491.00;5049645;28;19917;-70
2023/10/30 07:13:54;;;;;;;;;;;;;;;-140.72;100.00;59495.06;5047987;28;20359;-70
2023/10/30 07:16:19;;;;;;;;;;;;;;;-140.72;100.00;59545.91;5049956;28;20027;-70
2023/10/30 07:18:44;;;;;;;;;;;;;;;-140.72;100.00;59533.69;5048311;28;20115;-70
2023/10/30 07:21:09;;;;;;;;;;;;;;;-140.72;100.00;59511.34;5049812;28;20031;-70
2023/10/30 07:23:35;;;;;;;;;;;;;;;-140.72;100.00;59507.28;5053392;28;20306;-71
2023/10/30 07:26:00;;;;;;;;;;;;;;;-140.72;100.00;59515.41;5056150;28;20007;-70
2023/10/30 07:28:25;;;;;;;;;;;;;;;-140.72;100.00;59503.22;5057262;28;20095;-70
2023/10/30 07:30:50;;;;;;;;;;;;;;;-140.72;100.00;59493.03;5058856;28;19917;-70
2023/10/30 07:33:15;;;;;;;;;;;;;;;-140.72;100.00;59476.78;5061307;28;19921;-70
2023/10/30 07:35:41;;;;;;;;;;;;;;;-140.72;100.00;59466.63;5060056;28;19917;-71
2023/10/30 07:38:06;;;;;;;;;;;;;;;-140.72;100.00;59444.25;5055110;28;19917;-70
2023/10/30 07:40:31;;;;;;;;;;;;;;;-140.72;100.00;59381.25;5054528;28;19928;-71
2023/10/30 07:42:57;;;;;;;;;;;;;;;-140.72;100.00;59356.84;5054530;28;19925;-71
2023/10/30 07:45:22;;;;;;;;;;;;;;;-140.72;100.00;59330.44;5054272;28;19984;-70
2023/10/30 07:47:47;;;;;;;;;;;;;;;-140.72;100.00;59320.25;5054257;28;19963;-70
2023/10/30 07:50:13;;;;;;;;;;;;;;;-140.72;100.00;59299.94;5054980;28;19921;-70
2023/10/30 07:52:38;;;;;;;;;;;;;;;-140.72;100.00;59269.44;5059027;28;19927;-70
2023/10/30 07:55:05;;;;;;;;;;;;;;;-140.72;100.00;59222.69;5047399;28;20433;-70
2023/10/30 07:57:30;;;;;;;;;;;;;;;-140.72;100.00;59210.50;5050398;28;19939;-70
2023/10/30 07:59:56;;;;;;;;;;;;;;;-140.72;100.00;59194.25;5055708;28;20011;-70
2023/10/30 08:02:21;;;;;;;;;;;;;;;-140.72;100.00;59169.84;5055509;28;19924;-71
2023/10/30 08:04:46;;;;;;;;;;;;;;;-140.72;100.00;59125.13;5055220;28;19946;-70
2023/10/30 08:07:11;;;;;;;;;;;;;;;-140.72;100.00;59051.97;5059784;28;20367;-70
2023/10/30 08:09:36;;;;;;;;;;;;;;;-140.72;100.00;59051.97;5053733;28;19943;-70
2023/10/30 08:12:02;;;;;;;;;;;;;;;-140.72;100.00;59015.38;5054745;28;19917;-70
2023/10/30 08:14:28;;;;;;;;;;;;;;;-140.72;100.00;58942.19;5053101;28;20367;-70
2023/10/30 08:16:53;;;;;;;;;;;;;;;-140.72;100.00;58887.31;5052746;28;19917;-70
2023/10/30 08:19:19;;;;;;;;;;;;;;;-140.72;100.00;58846.69;5035137;28;20395;-71
2023/10/30 08:21:44;;;;;;;;;;;;;;;-140.72;100.00;58787.75;5052945;28;20294;-71
2023/10/30 08:24:09;;;;;;;;;;;;;;;-140.72;100.00;58791.81;5055115;28;20348;-72
2023/10/30 08:26:34;;;;;;;;;;;;;;;-140.72;100.00;58755.22;5054617;28;19917;-70
2023/10/30 08:28:59;;;;;;;;;;;;;;;-140.72;100.00;58743.03;5060570;28;19925;-70
2023/10/30 08:31:25;;;;;;;;;;;;;;;-140.72;100.00;58730.84;5082836;28;19917;-70
2023/10/30 08:33:50;;;;;;;;;;;;;;;-140.72;100.00;58659.69;5053938;28;19916;-70
2023/10/30 08:36:22;;;;;;;;;;;;;;;-140.72;100.00;58657.66;5052218;28;19984;-70
2023/10/30 08:38:47;;;;;;;;;;;;;;;-140.72;100.00;58671.91;5036430;28;19917;-70
2023/10/30 08:41:15;;;;;;;;;;;;;;;-140.72;100.00;58659.69;5049199;28;19954;-70
2023/10/30 08:43:41;;;;;;;;;;;;;;;-140.72;100.00;58627.19;5054470;28;19917;-70
2023/10/30 08:46:06;;;;;;;;;;;;;;;-140.72;100.00;58610.94;5050338;28;19921;-70
2023/10/30 08:48:31;;;;;;;;;;;;;;;-140.72;100.00;58631.25;5052627;28;20306;-71
2023/10/30 08:50:56;;;;;;;;;;;;;;;-140.72;100.00;58558.09;5050339;28;20338;-70
2023/10/30 08:53:21;;;;;;;;;;;;;;;-140.72;100.00;58560.13;5027084;28;20554;-71
2023/10/30 08:55:46;;;;;;;;;;;;;;;-140.72;100.00;58545.88;5034412;28;20019;-70
2023/10/30 08:58:12;;;;;;;;;;;;;;;-140.72;100.00;58554.03;5034426;28;19928;-70
2023/10/30 09:00:37;;;;;;;;;;;;;;;-140.72;100.00;58495.09;5028952;28;19961;-70
2023/10/30 09:03:02;;;;;;;;;;;;;;;-140.72;100.00;58521.50;5040202;28;19923;-70
2023/10/30 09:05:27;;;;;;;;;;;;;;;-140.72;100.00;58480.84;5023471;28;19917;-70
2023/10/30 09:07:53;;;;;;;;;;;;;;;-140.72;100.00;58482.88;5027430;28;20020;-70
2023/10/30 09:10:18;;;;;;;;;;;;;;;-140.72;100.00;58432.09;5037892;28;19921;-71
2023/10/30 09:12:43;;;;;;;;;;;;;;;-140.72;100.00;58413.78;5035816;28;19921;-70
2023/10/30 09:15:09;;;;;;;;;;;;;;;-140.72;100.00;58436.16;5045460;28;20444;-71
2023/10/30 09:17:34;;;;;;;;;;;;;;;-140.72;100.00;58405.66;5054662;28;20043;-71
2023/10/30 09:19:59;;;;;;;;;;;;;;;-140.72;100.00;58344.69;5028308;28;19944;-70
2023/10/30 09:22:25;;;;;;;;;;;;;;;-140.72;100.00;58352.84;5026685;28;20017;-70
2023/10/30 09:24:51;;;;;;;;;;;;;;;-140.72;100.00;58318.28;5040546;28;19917;-70
2023/10/30 09:27:16;;;;;;;;;;;;;;;-140.72;100.00;58300.00;5032046;28;19924;-71
2023/10/30 09:29:42;;;;;;;;;;;;;;;-140.72;100.00;58259.34;5037280;28;19921;-70
2023/10/30 09:32:07;;;;;;;;;;;;;;;-140.72;100.00;58291.88;5036371;28;19963;-71
2023/10/30 09:34:34;;;;;;;;;;;;;;;-140.72;100.00;58228.88;5047439;28;19921;-70
2023/10/30 09:36:59;;;;;;;;;;;;;;;-140.72;100.00;58237.00;5019494;28;19917;-71
2023/10/30 09:39:25;;;;;;;;;;;;;;;-140.72;100.00;58141.50;5024198;28;19916;-70
2023/10/30 09:41:52;;;;;;;;;;;;;;;-140.72;100.00;58123.19;5038456;28;19917;-70
2023/10/30 09:44:17;;;;;;;;;;;;;;;-140.72;100.00;58078.50;5032983;28;20008;-70
2023/10/30 09:46:43;;;;;;;;;;;;;;;-140.72;100.00;58035.81;5026484;28;20410;-70
2023/10/30 09:49:11;;;;;;;;;;;;;;;-140.72;100.00;58021.59;5043504;28;20371;-71
2023/10/30 09:51:37;;;;;;;;;;;;;;;-140.72;100.00;58029.72;5040283;28;19943;-70
2023/10/30 09:54:03;;;;;;;;;;;;;;;-140.72;100.00;58035.81;5052983;28;19916;-70
2023/10/30 09:56:30;;;;;;;;;;;;;;;-140.72;100.00;58023.63;5053094;28;20409;-71
2023/10/30 09:58:55;;;;;;;;;;;;;;;-140.72;100.00;57995.19;5052851;28;20371;-70
2023/10/30 10:01:20;;;;;;;;;;;;;;;-140.72;100.00;58031.75;5052516;28;19974;-70
2023/10/30 10:03:46;;;;;;;;;;;;;;;-140.72;100.00;58064.28;5056973;28;20270;-70
2023/10/30 10:06:11;;;;;;;;;;;;;;;-140.72;100.00;58054.13;5060757;28;19924;-70
2023/10/30 10:08:36;;;;;;;;;;;;;;;-140.72;100.00;58013.47;5036790;28;19917;-70
2023/10/30 10:11:02;;;;;;;;;;;;;;;-140.72;100.00;57976.91;5043229;28;19921;-70
2023/10/30 10:13:32;;;;;;;;;;;;;;;-140.72;100.00;57972.84;5051336;28;20007;-70
2023/10/30 10:15:58;;;;;;;;;;;;;;;-140.72;100.00;57980.97;5062609;28;19924;-70
2023/10/30 10:18:23;;;;;;;;;;;;;;;-140.72;100.00;57917.97;5056215;28;20001;-70
2023/10/30 10:20:59;;;;;;;;;;;;;;;-140.72;100.00;57877.34;5052718;28;20299;-70
2023/10/30 10:23:25;;;;;;;;;;;;;;;-140.72;100.00;57771.66;5063586;28;20014;-70
2023/10/30 10:25:55;;;;;;;;;;;;;;;-140.72;100.00;57702.59;5043589;28;19960;-71
2023/10/30 10:28:21;;;;;;;;;;;;;;;-140.72;100.00;57649.75;5050189;28;19928;-71
2023/10/30 10:30:47;;;;;;;;;;;;;;;-140.72;100.00;57603.03;5052899;28;19924;-72
2023/10/30 10:33:12;;;;;;;;;;;;;;;-140.72;100.00;57540.03;5051733;28;19916;-72
2023/10/30 10:35:40;;;;;;;;;;;;;;;-140.72;100.00;57479.09;5052434;28;19920;-71
2023/10/30 10:38:13;;;;;;;;;;;;;;;-140.72;100.00;57462.84;5052202;28;20352;-71
2023/10/30 10:40:39;;;;;;;;;;;;;;;-140.72;100.00;57420.16;5051654;28;20007;-71
2023/10/30 10:43:05;;;;;;;;;;;;;;;-140.72;100.00;57426.28;5049239;28;19925;-71
2023/10/30 10:45:31;;;;;;;;;;;;;;;-140.72;100.00;57430.34;5047725;28;20394;-71
2023/10/30 10:47:57;;;;;;;;;;;;;;;-140.72;100.00;57448.63;5045876;28;19921;-71
2023/10/30 10:50:22;;;;;;;;;;;;;;;-140.72;100.00;57401.88;5033095;28;19937;-72
2023/10/30 10:52:48;;;;;;;;;;;;;;;-140.72;100.00;57426.28;5036557;28;19975;-73
2023/10/30 10:55:18;;;;;;;;;;;;;;;-140.72;100.00;57407.97;5042425;28;20290;-71
2023/10/30 10:58:09;;;;;;;;;;;;;;;-140.72;100.00;57385.63;5036887;28;19921;-71
2023/10/30 11:00:44;;;;;;;;;;;;;;;-140.72;100.00;57414.06;5048612;28;19921;-72
2023/10/30 11:03:10;;;;;;;;;;;;;;;-140.72;100.00;57444.56;5051188;28;20268;-72
2023/10/30 11:05:36;;;;;;;;;;;;;;;-140.72;100.00;57493.31;5055076;28;19916;-72
2023/10/30 11:08:21;;;;;;;;;;;;;;;-140.72;100.00;57521.75;5052852;28;19928;-71
2023/10/30 11:10:49;;;;;;;;;;;;;;;-140.72;100.00;57538.00;5044589;28;19921;-73
2023/10/30 11:13:17;;;;;;;;;;;;;;;-140.72;100.00;57531.91;5063093;28;19921;-71
2023/10/30 11:16:05;;;;;;;;;;;;;;;-140.72;100.00;57499.41;5051698;28;19983;-71
2023/10/30 11:18:32;;;;;;;;;;;;;;;-140.72;100.00;57454.72;5051753;28;20011;-73
2023/10/30 11:21:13;;;;;;;;;;;;;;;-140.72;100.00;57422.22;5052033;28;19928;-75
2023/10/30 11:23:44;;;;;;;;;;;;;;;-140.72;100.00;57355.16;5051040;28;19924;-73
2023/10/30 11:26:28;;;;;;;;;;;;;;;-140.72;100.00;57308.44;5051786;28;19916;-70
2023/10/30 11:28:53;;;;;;;;;;;;;;;-140.72;100.00;57277.97;5071536;28;19916;-72
2023/10/30 11:31:18;;;;;;;;;;;;;;;-140.72;100.00;57223.09;5049803;28;19927;-72
2023/10/30 11:33:44;;;;;;;;;;;;;;;-140.72;100.00;57221.06;5052653;28;19917;-71
2023/10/30 11:36:15;;;;;;;;;;;;;;;-140.72;100.00;57101.22;5051253;28;19916;-70
2023/10/30 11:38:52;;;;;;;;;;;;;;;-140.72;100.00;57054.47;5050813;28;19917;-70
2023/10/30 11:41:18;;;;;;;;;;;;;;;-140.72;100.00;57052.44;5051380;28;20315;-70
2023/10/30 11:43:44;;;;;;;;;;;;;;;-140.72;100.00;56991.50;5050120;28;19960;-72
2023/10/30 11:46:12;;;;;;;;;;;;;;;-140.72;100.00;56940.72;5051733;28;20257;-70
2023/10/30 11:48:37;;;;;;;;;;;;;;;-140.72;100.00;56918.38;5045736;28;19956;-70
2023/10/30 11:51:03;;;;;;;;;;;;;;;-140.72;100.00;56912.28;5023311;28;19979;-70
2023/10/30 11:53:28;;;;;;;;;;;;;;;-140.72;100.00;56896.03;5031274;28;20342;-71
2023/10/30 11:55:53;;;;;;;;;;;;;;;-140.72;100.00;56883.84;5030859;28;19921;-70
2023/10/30 11:58:19;;;;;;;;;;;;;;;-140.72;100.00;56865.56;5030684;28;19921;-70
2023/10/30 12:00:45;;;;;;;;;;;;;;;-140.72;100.00;56869.63;5030796;28;20392;-70
2023/10/30 12:03:10;;;;;;;;;;;;;;;-140.72;100.00;56806.66;5017749;28;20240;-70
2023/10/30 12:05:35;;;;;;;;;;;;;;;-140.72;100.00;56772.13;5030876;28;20012;-72
2023/10/30 12:08:01;;;;;;;;;;;;;;;-140.72;100.00;56831.03;5039988;28;20391;-71
2023/10/30 12:10:26;;;;;;;;;;;;;;;-140.72;100.00;56851.34;5039393;28;19920;-70
2023/10/30 12:12:51;;;;;;;;;;;;;;;-140.72;100.00;56855.41;5042050;28;19940;-71
2023/10/30 12:15:52;;;;;;;;;;;;;;;-140.72;100.00;56849.31;5036189;28;20377;-72
2023/10/30 12:18:17;;;;;;;;;;;;;;;-140.72;100.00;56843.22;5037179;28;19983;-72
2023/10/30 12:20:43;;;;;;;;;;;;;;;-140.72;100.00;56898.06;5044400;28;19952;-73
2023/10/30 12:23:09;;;;;;;;;;;;;;;-140.72;100.00;56845.25;5032575;28;20396;-73
2023/10/30 12:25:34;;;;;;;;;;;;;;;-140.72;100.00;56835.09;5035018;28;19929;-72
2023/10/30 12:28:01;;;;;;;;;;;;;;;-140.72;100.00;56873.69;5032976;28;19921;-73
2023/10/30 12:30:31;;;;;;;;;;;;;;;-140.72;100.00;56873.69;5032369;28;19956;-73